createdAt,value
2023-01-02T00:00:28.232Z,2.72
2023-01-02T00:02:54.775Z,2.28
2023-01-02T00:05:21.424Z,2.80
2023-01-02T00:07:47.852Z,2.72
2023-01-02T00:10:14.372Z,3.05
2023-01-02T00:12:40.972Z,2.55
2023-01-02T00:15:07.732Z,2.97
2023-01-02T00:17:34.253Z,2.58
2023-01-02T00:20:00.692Z,2.30
2023-01-02T00:22:27.081Z,2.65
2023-01-02T00:24:53.451Z,2.63
2023-01-02T00:27:19.872Z,2.80
2023-01-02T00:29:46.278Z,2.60
2023-01-02T00:32:12.784Z,2.42
2023-01-02T00:34:39.192Z,2.28
2023-01-02T00:37:05.591Z,2.33
2023-01-02T00:39:32.140Z,2.72
2023-01-02T00:41:58.524Z,2.28
2023-01-02T00:44:24.879Z,2.50
2023-01-02T00:46:51.349Z,2.53
2023-01-02T00:49:17.861Z,2.92
2023-01-02T00:51:44.288Z,2.25
2023-01-02T00:54:10.866Z,2.20
2023-01-02T00:56:37.326Z,2.28
2023-01-02T00:59:03.765Z,2.40
2023-01-02T01:01:30.474Z,3.17
2023-01-02T01:03:57.083Z,2.47
2023-01-02T01:06:23.591Z,2.60
2023-01-02T01:08:50.089Z,2.50
2023-01-02T01:11:17.674Z,2.20
2023-01-02T01:13:45.182Z,2.92
2023-01-02T01:16:17.134Z,2.58
2023-01-02T01:18:44.276Z,2.63
2023-01-02T01:21:13.869Z,2.50
2023-01-02T01:23:40.389Z,2.38
2023-01-02T01:26:12.096Z,2.63
2023-01-02T01:28:40.333Z,2.40
2023-01-02T01:31:10.261Z,2.42
2023-01-02T01:33:37.576Z,2.38
2023-01-02T01:36:08.304Z,2.55
2023-01-02T01:38:35.160Z,2.65
2023-01-02T01:41:02.841Z,2.00
2023-01-02T01:43:44.646Z,2.67
2023-01-02T01:46:18.121Z,2.90
2023-01-02T01:48:45.619Z,3.10
2023-01-02T01:51:13.123Z,2.97
2023-01-02T01:53:40.581Z,2.42
2023-01-02T01:56:10.621Z,2.33
2023-01-02T01:58:43.005Z,3.47
2023-01-02T02:01:12.860Z,2.65
2023-01-02T02:03:42.371Z,3.15
2023-01-02T02:06:10.687Z,3.72
2023-01-02T02:08:47.992Z,2.70
2023-01-02T02:11:14.529Z,3.15
2023-01-02T02:13:42.060Z,3.67
2023-01-02T02:16:25.793Z,4.60
2023-01-02T02:19:01.944Z,2.90
2023-01-02T02:21:49.826Z,3.90
2023-01-02T02:24:34.757Z,3.00
2023-01-02T02:27:35.474Z,3.13
2023-01-02T02:30:08.007Z,2.58
2023-01-02T02:32:52.224Z,2.45
2023-01-02T02:35:49.382Z,2.40
2023-01-02T02:39:01.311Z,2.35
2023-01-02T02:41:38.585Z,2.92
2023-01-02T02:44:11.966Z,2.50
2023-01-02T02:46:46.873Z,3.25
2023-01-02T02:49:31.523Z,1.98
2023-01-02T02:51:58.000Z,2.40
2023-01-02T02:54:40.437Z,2.35
2023-01-02T02:57:08.286Z,2.20
2023-01-02T02:59:36.876Z,2.20
2023-01-02T03:02:05.195Z,2.42
2023-01-02T03:04:32.114Z,2.50
2023-01-02T03:07:07.305Z,2.47
2023-01-02T03:12:00.017Z,2.75
2023-01-02T03:14:47.905Z,2.53
2023-01-02T03:17:54.031Z,2.28
2023-01-02T03:20:25.223Z,2.30
2023-01-02T03:22:58.169Z,2.85
2023-01-02T03:25:24.936Z,2.60
2023-01-02T03:27:56.534Z,2.10
2023-01-02T03:30:25.363Z,2.53
2023-01-02T03:33:00.153Z,2.55
2023-01-02T03:35:36.181Z,2.03
2023-01-02T03:38:06.485Z,2.10
2023-01-02T03:40:39.340Z,2.45
2023-01-02T03:43:10.873Z,2.83
2023-01-02T03:45:44.090Z,2.05
2023-01-02T03:48:23.723Z,2.72
2023-01-02T03:50:55.862Z,2.60
2023-01-02T03:53:23.080Z,2.28
2023-01-02T03:56:17.528Z,3.08
2023-01-02T03:58:43.866Z,2.70
2023-01-02T04:01:21.812Z,2.65
2023-01-02T04:03:57.581Z,2.50
2023-01-02T04:06:31.777Z,2.40
2023-01-02T04:09:14.775Z,2.55
2023-01-02T04:11:45.309Z,2.85
2023-01-02T04:14:20.169Z,2.05
2023-01-02T04:16:49.660Z,2.60
2023-01-02T04:19:24.264Z,2.50
2023-01-02T04:21:53.889Z,2.33
2023-01-02T04:24:28.037Z,2.30
2023-01-02T04:27:03.149Z,2.75
2023-01-02T04:32:03.874Z,2.30
2023-01-02T04:34:35.489Z,2.17
2023-01-02T04:37:02.160Z,2.28
2023-01-02T04:39:29.298Z,2.40
2023-01-02T04:41:55.909Z,2.55
2023-01-02T04:44:22.545Z,2.28
2023-01-02T04:46:49.088Z,2.38
2023-01-02T04:49:15.562Z,2.47
2023-01-02T04:51:41.968Z,2.22
2023-01-02T04:54:11.320Z,2.42
2023-01-02T04:56:38.101Z,2.75
2023-01-02T04:59:04.541Z,3.17
2023-01-02T05:01:31.196Z,2.40
2023-01-02T05:03:57.988Z,2.60
2023-01-02T05:06:25.729Z,2.30
2023-01-02T05:08:52.350Z,2.67
2023-01-02T05:11:20.946Z,2.50
2023-01-02T05:13:47.461Z,2.15
2023-01-02T05:16:14.128Z,2.22
2023-01-02T05:18:40.883Z,2.22
2023-01-02T05:21:29.070Z,3.13
2023-01-02T05:23:57.251Z,2.53
2023-01-02T05:26:23.735Z,2.22
2023-01-02T05:28:53.002Z,2.78
2023-01-02T05:31:20.012Z,2.58
2023-01-02T05:33:52.490Z,2.65
2023-01-02T05:36:19.830Z,2.00
2023-01-02T05:38:46.349Z,2.63
2023-01-02T05:41:13.103Z,2.13
2023-01-02T05:43:39.691Z,1.90
2023-01-02T05:46:11.064Z,2.72
2023-01-02T05:48:38.424Z,2.40
2023-01-02T05:51:06.913Z,2.65
2023-01-02T05:53:33.736Z,2.20
2023-01-02T05:56:13.873Z,2.35
2023-01-02T05:58:42.424Z,3.08
2023-01-02T06:01:14.937Z,2.50
2023-01-02T06:03:48.638Z,2.75
2023-01-02T06:06:17.031Z,2.55
2023-01-02T06:08:44.012Z,2.35
2023-01-02T06:11:10.848Z,2.47
2023-01-02T06:13:38.778Z,1.75
2023-01-02T06:16:07.465Z,2.10
2023-01-02T06:18:35.212Z,2.15
2023-01-02T06:21:03.642Z,3.15
2023-01-02T06:23:30.182Z,2.92
2023-01-02T06:26:05.468Z,2.17
2023-01-02T06:28:31.939Z,2.95
2023-01-02T06:31:06.875Z,2.85
2023-01-02T06:33:33.400Z,2.80
2023-01-02T06:36:05.056Z,2.05
2023-01-02T06:38:31.877Z,2.20
2023-01-02T06:41:00.107Z,2.30
2023-01-02T06:43:28.170Z,2.10
2023-01-02T06:46:00.771Z,3.13
2023-01-02T06:48:27.770Z,2.75
2023-01-02T06:50:54.230Z,2.50
2023-01-02T06:53:20.898Z,2.50
2023-01-02T06:55:56.727Z,2.65
2023-01-02T06:58:24.123Z,2.97
2023-01-02T07:00:51.063Z,2.53
2023-01-02T07:03:18.390Z,2.35
2023-01-02T07:05:45.229Z,2.67
2023-01-02T07:08:12.802Z,1.98
2023-01-02T07:10:39.696Z,2.42
2023-01-02T07:13:06.134Z,2.45
2023-01-02T07:15:33.516Z,2.70
2023-01-02T07:18:00.381Z,2.47
2023-01-02T07:20:26.804Z,2.17
2023-01-02T07:22:54.500Z,2.75
2023-01-02T07:25:21.854Z,3.13
2023-01-02T07:27:48.652Z,2.63
2023-01-02T07:30:15.508Z,2.17
2023-01-02T07:32:43.224Z,2.60
2023-01-02T07:35:11.072Z,2.55
2023-01-02T07:37:37.624Z,2.35
2023-01-02T07:40:05.032Z,2.10
2023-01-02T07:42:31.667Z,2.63
2023-01-02T07:44:58.078Z,2.00
2023-01-02T07:47:24.559Z,2.08
2023-01-02T07:49:51.139Z,3.00
2023-01-02T07:52:17.761Z,2.38
2023-01-02T07:54:44.362Z,2.00
2023-01-02T07:57:10.910Z,2.20
2023-01-02T07:59:37.487Z,2.38
2023-01-02T08:02:04.058Z,2.50
2023-01-02T08:04:30.576Z,2.42
2023-01-02T08:06:57.143Z,3.25
2023-01-02T08:09:23.735Z,6.40
2023-01-02T08:11:50.345Z,3.97
2023-01-02T08:14:23.270Z,4.15
2023-01-02T08:16:50.407Z,3.33
2023-01-02T08:19:17.074Z,2.65
2023-01-02T08:21:43.543Z,2.13
2023-01-02T08:24:10.175Z,2.63
2023-01-02T08:26:36.765Z,1.95
2023-01-02T08:29:03.289Z,2.03
2023-01-02T08:31:29.824Z,2.08
2023-01-02T08:33:56.525Z,1.85
2023-01-02T08:36:23.183Z,2.33
2023-01-02T08:38:49.709Z,2.10
2023-01-02T08:41:39.763Z,2.15
2023-01-02T08:44:06.645Z,2.40
2023-01-02T08:46:42.032Z,1.60
2023-01-02T08:49:09.780Z,2.28
2023-01-02T08:51:37.317Z,1.85
2023-01-02T08:54:03.791Z,1.80
2023-01-02T08:56:32.128Z,1.55
2023-01-02T08:59:10.397Z,1.60
2023-01-02T09:01:38.266Z,2.00
2023-01-02T09:04:11.994Z,1.90
2023-01-02T09:06:39.600Z,2.40
2023-01-02T09:09:11.377Z,2.00
2023-01-02T09:11:43.173Z,2.05
2023-01-02T09:14:09.649Z,1.85
2023-01-02T09:16:36.119Z,2.65
2023-01-02T09:19:03.872Z,2.17
2023-01-02T09:21:30.700Z,1.83
2023-01-02T09:23:57.435Z,2.15
2023-01-02T09:26:24.035Z,1.65
2023-01-02T09:28:50.866Z,1.60
2023-01-02T09:31:18.594Z,1.83
2023-01-02T09:33:47.046Z,1.50
2023-01-02T09:36:18.662Z,1.75
2023-01-02T09:39:00.105Z,1.60
2023-01-02T09:41:32.658Z,1.88
2023-01-02T09:44:04.900Z,1.90
2023-01-02T09:46:48.455Z,2.20
2023-01-02T09:49:21.589Z,2.05
2023-01-02T09:51:48.392Z,2.17
2023-01-02T09:54:23.664Z,1.95
2023-01-02T09:57:10.293Z,2.05
2023-01-02T09:59:49.370Z,1.90
2023-01-02T10:02:22.009Z,1.88
2023-01-02T10:04:51.479Z,2.50
2023-01-02T10:07:32.935Z,1.80
2023-01-02T10:10:18.900Z,1.65
2023-01-02T10:12:51.080Z,1.88
2023-01-02T10:15:24.839Z,2.17
2023-01-02T10:17:58.300Z,2.30
2023-01-02T10:20:30.335Z,2.40
2023-01-02T10:23:23.185Z,2.25
2023-01-02T10:25:53.319Z,2.70
2023-01-02T10:28:32.458Z,2.70
2023-01-02T10:31:28.999Z,2.80
2023-01-02T10:34:03.774Z,2.22
2023-01-02T10:36:35.958Z,2.75
2023-01-02T10:39:05.918Z,1.70
2023-01-02T10:41:35.879Z,1.77
2023-01-02T10:44:05.617Z,1.83
2023-01-02T10:46:35.755Z,2.00
2023-01-02T10:49:04.932Z,2.28
2023-01-02T10:51:32.231Z,2.05
2023-01-02T10:54:09.909Z,1.65
2023-01-02T10:56:39.577Z,2.08
2023-01-02T10:59:35.263Z,1.70
2023-01-02T11:02:04.212Z,1.77
2023-01-02T11:04:31.099Z,1.45
2023-01-02T11:07:00.665Z,1.70
2023-01-02T11:09:28.859Z,1.67
2023-01-02T11:12:08.009Z,1.42
2023-01-02T11:14:36.592Z,1.23
2023-01-02T11:17:06.984Z,1.50
2023-01-02T11:19:43.774Z,1.60
2023-01-02T11:22:12.791Z,1.52
2023-01-02T11:25:00.706Z,1.50
2023-01-02T11:27:35.966Z,1.60
2023-01-02T11:30:04.488Z,1.23
2023-01-02T11:32:39.967Z,1.85
2023-01-02T11:35:38.460Z,1.70
2023-01-02T11:38:05.263Z,1.75
2023-01-02T11:40:32.241Z,1.83
2023-01-02T11:43:24.928Z,1.80
2023-01-02T11:45:53.063Z,1.40
2023-01-02T11:48:23.712Z,1.90
2023-01-02T11:50:50.920Z,1.88
2023-01-02T11:53:21.402Z,1.73
2023-01-02T11:55:59.471Z,1.60
2023-01-02T11:58:37.354Z,1.17
2023-01-02T12:01:18.109Z,1.60
2023-01-02T12:03:45.155Z,1.63
2023-01-02T12:06:22.123Z,1.50
2023-01-02T12:09:03.997Z,1.38
2023-01-02T12:11:41.501Z,2.05
2023-01-02T12:14:08.830Z,1.30
2023-01-02T12:16:42.619Z,1.52
2023-01-02T12:19:48.008Z,1.40
2023-01-02T12:22:35.974Z,1.43
2023-01-02T12:25:33.365Z,1.60
2023-01-02T12:28:25.800Z,1.65
2023-01-02T12:31:27.975Z,1.98
2023-01-02T12:34:04.446Z,1.20
2023-01-02T12:36:51.736Z,2.35
2023-01-02T12:39:39.138Z,1.80
2023-01-02T12:42:39.799Z,1.42
2023-01-02T12:45:18.068Z,1.80
2023-01-02T12:48:06.143Z,1.80
2023-01-02T12:50:46.913Z,1.30
2023-01-02T12:53:27.237Z,1.70
2023-01-02T12:56:20.429Z,1.50
2023-01-02T12:59:19.997Z,2.00
2023-01-02T13:01:54.929Z,1.48
2023-01-02T13:04:24.025Z,2.35
2023-01-02T13:07:17.192Z,1.67
2023-01-02T13:09:45.584Z,1.80
2023-01-02T13:12:25.495Z,1.75
2023-01-02T13:15:01.792Z,1.38
2023-01-02T13:17:43.185Z,1.88
2023-01-02T13:20:34.460Z,1.27
2023-01-02T13:23:31.621Z,1.63
2023-01-02T13:26:06.829Z,1.20
2023-01-02T13:34:14.582Z,0.82
2023-01-02T13:36:45.992Z,0.80
2023-01-02T13:39:26.003Z,0.93
2023-01-02T13:42:20.322Z,1.52
2023-01-02T13:45:11.242Z,1.10
2023-01-02T13:47:39.061Z,0.73
2023-01-02T13:50:18.160Z,0.90
2023-01-02T13:53:01.330Z,1.08
2023-01-02T13:55:31.704Z,0.90
2023-01-02T13:58:17.762Z,1.00
2023-01-02T14:00:55.055Z,0.90
2023-01-02T14:03:22.678Z,1.10
2023-01-02T14:06:30.583Z,1.58
2023-01-02T14:09:05.879Z,1.38
2023-01-02T14:11:55.266Z,1.55
2023-01-02T14:14:44.720Z,1.48
2023-01-02T14:17:42.366Z,1.65
2023-01-02T14:20:29.831Z,1.70
2023-01-02T14:23:00.813Z,2.10
2023-01-02T14:25:28.279Z,1.58
2023-01-02T14:28:06.003Z,1.98
2023-01-02T14:30:37.896Z,1.90
2023-01-02T14:33:08.076Z,1.85
2023-01-02T14:35:38.829Z,2.35
2023-01-02T14:38:20.367Z,2.30
2023-01-02T14:40:47.733Z,2.17
2023-01-02T14:43:32.800Z,2.20
2023-01-02T14:46:04.995Z,2.13
2023-01-02T14:48:48.447Z,2.15
2023-01-02T14:51:29.613Z,2.25
2023-01-02T14:54:00.113Z,1.98
2023-01-02T14:56:41.490Z,1.88
2023-01-02T14:59:16.492Z,1.80
2023-01-02T15:01:47.960Z,1.65
2023-01-02T15:04:44.175Z,2.20
2023-01-02T15:07:23.903Z,1.83
2023-01-02T15:09:58.743Z,1.98
2023-01-02T15:12:46.922Z,2.08
2023-01-02T15:15:18.793Z,2.00
2023-01-02T15:17:48.003Z,2.30
2023-01-02T15:20:21.437Z,2.55
2023-01-02T15:22:48.006Z,2.50
2023-01-02T15:25:33.409Z,2.53
2023-01-02T15:27:59.803Z,2.65
2023-01-02T15:30:34.448Z,2.65
2023-01-02T15:33:00.807Z,2.80
2023-01-02T15:35:34.342Z,2.65
2023-01-02T15:38:00.893Z,2.80
2023-01-02T15:40:31.943Z,2.50
2023-01-02T15:43:28.594Z,2.15
2023-01-02T15:45:55.480Z,1.65
2023-01-02T15:48:23.779Z,2.05
2023-01-02T15:50:53.230Z,1.58
2023-01-02T15:53:27.370Z,1.48
2023-01-02T15:55:54.456Z,1.60
2023-01-02T15:58:25.385Z,1.55
2023-01-02T16:01:14.934Z,1.65
2023-01-02T16:04:01.832Z,1.80
2023-01-02T16:06:34.476Z,1.70
2023-01-02T16:09:03.938Z,2.10
2023-01-02T16:11:32.048Z,2.30
2023-01-02T16:14:19.269Z,2.38
2023-01-02T16:16:51.683Z,3.20
2023-01-02T16:19:43.767Z,2.97
2023-01-02T16:22:10.123Z,2.50
2023-01-02T16:24:43.524Z,2.00
2023-01-02T16:27:15.705Z,1.80
2023-01-02T16:29:43.696Z,1.85
2023-01-02T16:32:30.967Z,1.77
2023-01-02T16:35:17.160Z,1.60
2023-01-02T16:37:56.112Z,1.77
2023-01-02T16:41:01.379Z,1.90
2023-01-02T16:43:13.509Z,1.77
2023-01-02T16:45:39.975Z,2.25
2023-01-02T16:48:08.430Z,2.58
2023-01-02T16:50:41.051Z,2.30
2023-01-02T16:53:08.540Z,2.22
2023-01-02T16:55:34.974Z,2.47
2023-01-02T16:58:01.401Z,2.85
2023-01-02T17:00:27.884Z,2.30
2023-01-02T17:02:54.492Z,2.75
2023-01-02T17:05:42.448Z,2.65
2023-01-02T17:08:08.840Z,2.67
2023-01-02T17:10:35.211Z,2.63
2023-01-02T17:13:04.784Z,2.55
2023-01-02T17:15:32.298Z,2.72
2023-01-02T17:17:59.217Z,2.25
2023-01-02T17:20:27.324Z,2.63
2023-01-02T17:22:53.723Z,2.40
2023-01-02T17:25:20.296Z,2.45
2023-01-02T17:27:46.772Z,2.40
2023-01-02T17:30:15.012Z,2.15
2023-01-02T17:32:43.073Z,2.03
2023-01-02T17:35:10.792Z,2.22
2023-01-02T17:37:38.694Z,1.95
2023-01-02T17:40:07.143Z,1.92
2023-01-02T17:42:33.603Z,1.92
2023-01-02T17:45:00.055Z,1.80
2023-01-02T17:50:13.114Z,2.15
2023-01-02T17:52:39.618Z,1.50
2023-01-02T17:55:10.258Z,1.70
2023-01-02T17:57:38.931Z,1.42
2023-01-02T18:00:08.502Z,1.30
2023-01-02T18:02:35.282Z,1.20
2023-01-02T18:05:02.556Z,1.48
2023-01-02T18:07:29.026Z,1.10
2023-01-02T18:10:07.718Z,1.30
2023-01-02T18:12:37.797Z,1.40
2023-01-02T18:15:11.308Z,1.42
2023-01-02T18:17:37.906Z,1.30
2023-01-02T18:20:10.321Z,1.48
2023-01-02T18:22:39.929Z,1.30
2023-01-02T18:25:25.012Z,1.55
2023-01-02T18:27:53.137Z,1.52
2023-01-02T18:30:23.443Z,1.52
2023-01-02T18:32:57.175Z,1.40
2023-01-02T18:35:56.758Z,1.55
2023-01-02T18:38:31.660Z,1.65
2023-01-02T18:40:58.663Z,1.50
2023-01-02T18:43:39.291Z,1.27
2023-01-02T18:47:01.751Z,1.38
2023-01-02T18:49:26.911Z,1.90
2023-01-02T18:52:12.389Z,1.70
2023-01-02T18:54:44.507Z,1.60
2023-01-02T18:57:16.754Z,1.60
2023-01-02T18:59:46.159Z,1.38
2023-01-02T19:02:42.275Z,1.45
2023-01-02T19:05:30.561Z,1.42
2023-01-02T19:08:12.660Z,1.77
2023-01-02T19:10:42.934Z,1.50
2023-01-02T19:13:24.561Z,1.50
2023-01-02T19:16:04.108Z,1.60
2023-01-02T19:18:45.676Z,1.85
2023-01-02T19:21:18.105Z,1.90
2023-01-02T19:23:50.482Z,2.05
2023-01-02T19:26:23.808Z,1.80
2023-01-02T19:29:08.928Z,1.50
2023-01-02T19:32:03.817Z,1.63
2023-01-02T19:34:37.243Z,1.80
2023-01-02T19:37:12.432Z,1.48
2023-01-02T19:42:19.481Z,1.95
2023-01-02T19:45:21.121Z,1.75
2023-01-02T19:47:49.272Z,1.73
2023-01-02T19:50:20.124Z,1.58
2023-01-02T19:52:47.100Z,1.92
2023-01-02T19:55:13.963Z,1.70
2023-01-02T19:57:40.518Z,1.80
2023-01-02T20:00:12.621Z,1.35
2023-01-02T20:02:45.200Z,1.77
2023-01-02T20:05:14.731Z,1.50
2023-01-02T20:07:44.590Z,1.92
2023-01-02T20:10:12.071Z,1.88
2023-01-02T20:12:41.450Z,1.70
2023-01-02T20:15:20.740Z,1.88
2023-01-02T20:17:47.516Z,1.98
2023-01-02T20:20:16.657Z,2.00
2023-01-02T20:22:43.718Z,2.05
2023-01-02T20:25:12.033Z,2.08
2023-01-02T20:27:38.540Z,2.10
2023-01-02T20:30:06.999Z,2.00
2023-01-02T20:32:33.389Z,1.67
2023-01-02T20:34:59.829Z,1.50
2023-01-02T20:37:26.550Z,1.85
2023-01-02T20:39:53.987Z,1.65
2023-01-02T20:42:21.411Z,1.70
2023-01-02T20:44:48.731Z,1.70
2023-01-02T20:47:15.220Z,1.60
2023-01-02T20:49:42.304Z,1.67
2023-01-02T20:52:08.968Z,1.50
2023-01-02T20:54:35.751Z,1.70
2023-01-02T20:57:05.339Z,1.73
2023-01-02T20:59:31.960Z,1.52
2023-01-02T21:01:58.645Z,1.45
2023-01-02T21:04:34.227Z,1.42
2023-01-02T21:07:03.505Z,1.77
2023-01-02T21:09:30.125Z,1.50
2023-01-02T21:11:56.485Z,1.55
2023-01-02T21:14:22.957Z,1.60
2023-01-02T21:16:49.460Z,1.42
2023-01-02T21:19:16.084Z,1.35
2023-01-02T21:21:42.492Z,1.50
2023-01-02T21:24:08.966Z,1.40
2023-01-02T21:26:35.415Z,1.08
2023-01-02T21:29:03.009Z,1.50
2023-01-02T21:31:29.760Z,1.60
2023-01-02T21:33:56.352Z,1.48
2023-01-02T21:36:25.691Z,1.42
2023-01-02T21:38:52.192Z,1.30
2023-01-02T21:41:37.533Z,1.38
2023-01-02T21:44:04.020Z,1.40
2023-01-02T21:46:30.480Z,1.50
2023-01-02T21:48:56.995Z,1.20
2023-01-02T21:51:26.487Z,1.83
2023-01-02T21:53:57.155Z,1.20
2023-01-02T21:56:23.529Z,1.63
2023-01-02T21:58:50.005Z,1.98
2023-01-02T22:01:16.586Z,1.17
2023-01-02T22:03:43.225Z,1.40
2023-01-02T22:06:10.254Z,1.10
2023-01-02T22:08:36.706Z,1.20
2023-01-02T22:11:21.547Z,1.50
2023-01-02T22:13:47.951Z,1.40
2023-01-02T22:16:14.726Z,1.42
2023-01-02T22:18:41.105Z,1.30
2023-01-02T22:21:07.463Z,1.80
2023-01-02T22:23:33.850Z,1.40
2023-01-02T22:26:00.316Z,1.55
2023-01-02T22:28:26.721Z,1.23
2023-01-02T22:30:53.178Z,1.60
2023-01-02T22:33:19.570Z,1.40
2023-01-02T22:35:45.957Z,1.30
2023-01-02T22:38:12.532Z,1.15
2023-01-02T22:40:39.105Z,1.42
2023-01-02T22:43:06.498Z,1.15
2023-01-02T22:45:44.932Z,1.30
2023-01-02T22:48:23.871Z,1.50
2023-01-02T22:50:52.919Z,1.15
2023-01-02T22:53:39.346Z,1.58
2023-01-02T22:56:18.182Z,1.30
2023-01-02T22:58:45.077Z,1.40
2023-01-02T23:01:24.263Z,1.27
2023-01-02T23:03:51.208Z,1.60
2023-01-02T23:06:22.170Z,1.30
2023-01-02T23:08:49.552Z,1.40
2023-01-02T23:11:15.943Z,1.45
2023-01-02T23:13:43.190Z,1.50
2023-01-02T23:16:28.227Z,1.63
2023-01-02T23:19:12.992Z,1.42
2023-01-02T23:21:40.160Z,1.48
2023-01-02T23:24:06.942Z,1.60
2023-01-02T23:26:37.401Z,1.48
2023-01-02T23:29:06.950Z,1.60
2023-01-02T23:31:39.374Z,1.30
2023-01-02T23:34:06.247Z,1.52
2023-01-02T23:36:33.005Z,1.70
2023-01-02T23:38:59.495Z,1.10
2023-01-02T23:41:26.092Z,1.52
2023-01-02T23:43:52.592Z,1.30
2023-01-02T23:46:19.046Z,2.20
2023-01-02T23:48:45.466Z,1.35
2023-01-02T23:51:11.883Z,1.20
2023-01-02T23:53:38.274Z,1.10
2023-01-02T23:56:15.450Z,1.80
2023-01-02T23:58:41.777Z,1.30
